Weather History for KTSP - January, 2013

Change the Weather History Date:

Wednesday, January 2, 2013

  Actual Average Record
Temperature  
Mean Temperature 40 °F -  
Max Temperature 51 °F 48 °F 66 °F (2012)
Min Temperature 28 °F 28 °F 17 °F (2015)
Degree Days  
Heating Degree Days 26    
Moisture  
Dew Point 10 °F    
Average Humidity 34    
Maximum Humidity 59    
Minimum Humidity 18    
Precipitation  
Precipitation 0.00 in - - ()
Sea Level Pressure  
Sea Level Pressure 30.16 in    
Wind  
Wind Speed 11 mph (ESE)    
Max Wind Speed 18 mph    
Max Gust Speed 28 mph    
Visibility 10 miles    
Events      
Averages and records for this station are not official NWS values.
T = Trace of Precipitation, MM = Missing Value Source: NWS Daily Summary

Daily Weather History Graph

Daily Weather History Graph

Search for Another Location

Airport or City:

Trip Planner

Search our weather history database for the weather conditions in past years. The results will help you decide how hot, cold, wet, or windy it might be!

Date:

Astronomy

Jan. 02, 2013 Rise Set
Actual Time 7:02 AM PST 4:53 PM PST
Civil Twilight 6:34 AM PST 5:21 PM PST
Nautical Twilight 6:02 AM PST 5:53 PM PST
Astronomical Twilight 5:31 AM PST 6:24 PM PST
Moon 10:17 PM PST (1/2) 9:58 AM PST (1/2)
Length of Visible Light 10h 47m
Length of Day
9h 51m
Waning Gibbous, 74% of the Moon is Illuminated
Jan 2
Waning Gibbous
Jan 4
Last Quarter
Jan 11
New
Jan 18
First Quarter
Jan 26
Full

Hourly Weather History & Observations

Time (PST) Temp. Windchill Dew Point Humidity Pressure Visibility Wind Dir Wind Speed Gust Speed Precip Events Conditions
12:15 AM 32.0 °F 23.0 °F 6.8 °F 35% 30.21 in 10.0 mi East 11.5 mph - N/A   Clear
12:35 AM 32.0 °F 22.5 °F 6.8 °F 35% 30.21 in 10.0 mi East 12.7 mph 18.4 mph N/A   Clear
12:55 AM 32.0 °F 25.6 °F 6.8 °F 35% 30.21 in 10.0 mi East 6.9 mph - N/A   Clear
1:15 AM 33.8 °F 27.0 °F 6.8 °F 32% 30.21 in 10.0 mi ESE 8.1 mph - N/A   Clear
1:35 AM 32.0 °F 24.2 °F 6.8 °F 35% 30.21 in 10.0 mi ESE 9.2 mph - N/A   Clear
1:55 AM 32.0 °F 25.6 °F 6.8 °F 35% 30.22 in 10.0 mi East 6.9 mph - N/A   Clear
2:15 AM 32.0 °F 22.1 °F 6.8 °F 35% 30.21 in 10.0 mi ESE 13.8 mph 18.4 mph N/A   Clear
2:35 AM 32.0 °F 24.2 °F 6.8 °F 35% 30.21 in 10.0 mi East 9.2 mph - N/A   Clear
2:55 AM 32.0 °F 24.2 °F 6.8 °F 35% 30.21 in 10.0 mi ESE 9.2 mph - N/A   Clear
3:15 AM 32.0 °F 24.2 °F 6.8 °F 35% 30.20 in 10.0 mi ESE 9.2 mph - N/A   Clear
3:35 AM 33.8 °F 24.3 °F 6.8 °F 32% 30.20 in 10.0 mi SE 13.8 mph 17.3 mph N/A   Clear
3:55 AM 33.8 °F 25.8 °F 6.8 °F 32% 30.19 in 10.0 mi SE 10.4 mph - N/A   Clear
4:15 AM 35.6 °F 26.6 °F 6.8 °F 30% 30.18 in 10.0 mi SE 13.8 mph 21.9 mph N/A   Clear
4:35 AM 35.6 °F 25.2 °F 6.8 °F 30% 30.18 in 10.0 mi SE 18.4 mph 24.2 mph N/A   Clear
4:55 AM 35.6 °F 26.2 °F 6.8 °F 30% 30.18 in 10.0 mi ESE 15.0 mph - N/A   Clear
5:15 AM 33.8 °F 22.8 °F 6.8 °F 32% 30.17 in 10.0 mi ESE 18.4 mph 23.0 mph N/A   Clear
5:35 AM 35.6 °F 26.2 °F 6.8 °F 30% 30.17 in 10.0 mi ESE 15.0 mph 21.9 mph N/A   Clear
5:55 AM 32.0 °F 22.5 °F 6.8 °F 35% 30.17 in 10.0 mi East 12.7 mph 18.4 mph N/A   Clear
6:15 AM 32.0 °F 21.2 °F 6.8 °F 35% 30.16 in 10.0 mi ESE 16.1 mph 24.2 mph N/A   Clear
6:35 AM 32.0 °F 20.5 °F 6.8 °F 35% 30.16 in 10.0 mi ESE 18.4 mph 23.0 mph N/A   Clear
6:55 AM 32.0 °F 21.2 °F 6.8 °F 35% 30.16 in 10.0 mi ESE 16.1 mph 24.2 mph N/A   Clear
7:15 AM 32.0 °F 20.8 °F 6.8 °F 35% 30.17 in 10.0 mi East 17.3 mph 23.0 mph N/A   Clear
7:35 AM 32.0 °F 22.1 °F 6.8 °F 35% 30.17 in 10.0 mi East 13.8 mph 25.3 mph N/A   Clear
7:55 AM 35.6 °F 26.6 °F 6.8 °F 30% 30.17 in 10.0 mi ESE 13.8 mph 23.0 mph N/A   Clear
8:15 AM 37.4 °F 28.2 °F 6.8 °F 28% 30.17 in 10.0 mi ESE 16.1 mph 21.9 mph N/A   Clear
8:35 AM 37.4 °F 28.2 °F 6.8 °F 28% 30.17 in 10.0 mi ESE 16.1 mph 23.0 mph N/A   Clear
8:55 AM 39.2 °F 29.8 °F 6.8 °F 26% 30.18 in 10.0 mi SE 18.4 mph 26.5 mph N/A   Clear
9:15 AM 39.2 °F 30.2 °F 6.8 °F 26% 30.17 in 10.0 mi SE 17.3 mph 27.6 mph N/A   Clear
9:35 AM 41.0 °F 32.8 °F 6.8 °F 24% 30.18 in 10.0 mi SE 16.1 mph 24.2 mph N/A   Clear
9:55 AM 41.0 °F 33.1 °F 6.8 °F 24% 30.18 in 10.0 mi SE 15.0 mph 23.0 mph N/A   Clear
10:15 AM 42.8 °F 35.8 °F 6.8 °F 23% 30.19 in 8.0 mi SE 13.8 mph 21.9 mph N/A   Clear
10:35 AM 44.6 °F 38.4 °F 6.8 °F 21% 30.19 in 9.0 mi SE 12.7 mph 19.6 mph N/A   Clear
10:55 AM 44.6 °F 38.4 °F 8.6 °F 23% 30.19 in 9.0 mi SE 12.7 mph 19.6 mph N/A   Clear
11:15 AM 46.4 °F 41.5 °F 8.6 °F 22% 30.18 in 9.0 mi ESE 10.4 mph 17.3 mph N/A   Clear
11:35 AM 46.4 °F 41.9 °F 6.8 °F 20% 30.17 in 10.0 mi ESE 9.2 mph - N/A   Clear
11:55 AM 46.4 °F 45.2 °F 6.8 °F 20% 30.16 in 10.0 mi East 3.5 mph - N/A   Clear
12:15 PM 48.2 °F - 8.6 °F 20% 30.15 in 9.0 mi ESE 10.4 mph - N/A   Clear
12:35 PM 48.2 °F - 8.6 °F 20% 30.14 in 9.0 mi ESE 10.4 mph - N/A   Clear
12:55 PM 50.0 °F - 8.6 °F 19% 30.13 in 10.0 mi ESE 10.4 mph - N/A   Clear
1:15 PM 50.0 °F - 8.6 °F 19% 30.12 in 10.0 mi ESE 9.2 mph - N/A   Clear
1:35 PM 51.8 °F - 8.6 °F 18% 30.12 in 10.0 mi East 9.2 mph - N/A   Clear
1:55 PM 51.8 °F - 8.6 °F 18% 30.12 in 10.0 mi ENE 5.8 mph - N/A   Clear
2:15 PM 48.2 °F - 24.8 °F 40% 30.13 in 10.0 mi NW 11.5 mph - N/A   Clear
2:35 PM 48.2 °F - 23.0 °F 37% 30.12 in 9.0 mi NW 11.5 mph - N/A   Clear
2:55 PM 48.2 °F - 24.8 °F 40% 30.12 in 10.0 mi NW 10.4 mph - N/A   Clear
3:15 PM 48.2 °F - 23.0 °F 37% 30.12 in 10.0 mi NW 6.9 mph - N/A   Clear
3:35 PM 48.2 °F - 19.4 °F 32% 30.12 in 10.0 mi NW 6.9 mph - N/A   Clear
3:55 PM 46.4 °F 42.4 °F 24.8 °F 43% 30.13 in 10.0 mi NW 8.1 mph - N/A   Clear
4:35 PM 42.8 °F 40.1 °F 17.6 °F 36% 30.13 in 9.0 mi ESE 4.6 mph - N/A   Clear
4:55 PM 39.2 °F 32.0 °F 14.0 °F 36% 30.14 in 10.0 mi ESE 11.5 mph - N/A   Clear
5:15 PM 37.4 °F 31.4 °F 10.4 °F 33% 30.14 in 10.0 mi ESE 8.1 mph - N/A   Clear
5:35 PM 32.0 °F 24.2 °F 14.0 °F 48% 30.14 in 10.0 mi SE 9.2 mph - N/A   Clear
5:55 PM 32.0 °F - 14.0 °F 48% 30.15 in 10.0 mi Calm Calm - N/A   Clear
6:15 PM 32.0 °F - 14.0 °F 48% 30.15 in 10.0 mi Calm Calm - N/A   Clear
6:35 PM 32.0 °F - 14.0 °F 48% 30.15 in 10.0 mi Calm Calm - N/A   Clear
6:55 PM 30.2 °F 24.3 °F 15.8 °F 55% 30.15 in 10.0 mi SE 5.8 mph - N/A   Clear
7:35 PM 28.4 °F 21.2 °F 15.8 °F 59% 30.15 in 10.0 mi East 6.9 mph - N/A   Clear
7:55 PM 30.2 °F - 15.8 °F 55% 30.15 in 10.0 mi Calm Calm - N/A   Clear
8:15 PM 28.4 °F 22.2 °F 14.0 °F 55% 30.14 in 10.0 mi East 5.8 mph - N/A   Clear
8:35 PM 28.4 °F 19.1 °F 15.8 °F 59% 30.14 in 10.0 mi ESE 10.4 mph - N/A   Clear
8:55 PM 33.8 °F 25.3 °F 10.4 °F 38% 30.14 in 10.0 mi East 11.5 mph - N/A   Clear
9:15 PM 37.4 °F 30.8 °F 10.4 °F 33% 30.14 in 10.0 mi East 9.2 mph - N/A   Clear
9:35 PM 37.4 °F 29.8 °F 10.4 °F 33% 30.14 in 10.0 mi East 11.5 mph - N/A   Clear
9:55 PM 39.2 °F 31.6 °F 8.6 °F 28% 30.15 in 10.0 mi East 12.7 mph - N/A   Clear
10:15 PM 39.2 °F 32.5 °F 8.6 °F 28% 30.15 in 10.0 mi East 10.4 mph - N/A   Clear
10:35 PM 35.6 °F 28.6 °F 10.4 °F 35% 30.15 in 10.0 mi SE 9.2 mph - N/A   Clear
10:55 PM 28.4 °F 19.1 °F 14.0 °F 55% 30.15 in 10.0 mi SE 10.4 mph - N/A   Clear
11:15 PM 30.2 °F 20.2 °F 14.0 °F 51% 30.15 in 10.0 mi ESE 12.7 mph - N/A   Clear
11:35 PM 32.0 °F 23.6 °F 14.0 °F 48% 30.15 in 10.0 mi East 10.4 mph - N/A   Clear
11:55 PM 28.4 °F 18.5 °F 14.0 °F 55% 30.15 in 10.0 mi ESE 11.5 mph - N/A   Clear